Silver Shalis — V7TW8 — position and weather

sailwx.info

Track history (hours):
 
Tides and Currents Weather Stations Pressure Air Temp Water Temp Dewpoint Dewpoint Depression Visibility Wind Speed Wind Dir Waves Ship Positions

Silver Shalis

Last reported at 2018-Jul-28 09:46 UTC. Time now 2018-Aug-19 15:18 UTC.
Position N 44°53' E 014°06'.
Warning: this ship's position is 22 days out of date.

Length 55 m; draft 2.2 m.

MMSI: 538070721.

Date/timePositionNaut miles runAvg speedWind from/ knotsBaromVisibWave heightAir tempDewpointWater temp
2018-Jul-28 09:46N 44°53' E 014°06'614.6
2018-Jul-28 09:22N 44°48' E 014°02'13 0.3
2018-Jul-26 14:19N 44°56' E 013°46'5 1.3
2018-Jul-26 10:33N 44°59' E 013°42'111.4
2018-Jul-26 10:30N 44°60' E 013°41'510.0
2018-Jul-26 09:59N 45°04' E 013°37'1 2.6
2018-Jul-26 09:30N 45°05' E 013°38'0 0.0
2018-Jul-26 08:46N 45°05' E 013°38'0 0.0
2018-Jul-26 08:16N 45°05' E 013°38'0 0.0
2018-Jul-26 07:01N 45°05' E 013°38'0 0.0
2018-Jul-26 06:58N 45°05' E 013°38'0 0.0
2018-Jul-26 06:16N 45°05' E 013°38'0 0.0
2018-Jul-26 05:55N 45°05' E 013°38'0 0.0
2018-Jul-26 05:22N 45°05' E 013°38'0 0.0
2018-Jul-26 04:55N 45°05' E 013°38'0 0.0
2018-Jul-26 04:22N 45°05' E 013°38'0 0.0
2018-Jul-26 03:52N 45°05' E 013°38'0 0.0
2018-Jul-26 03:28N 45°05' E 013°38'0 0.0
2018-Jul-26 02:34N 45°05' E 013°38'0 0.0
2018-Jul-26 02:22N 45°05' E 013°38'0 0.0
2018-Jul-26 01:52N 45°05' E 013°38'0 0.0
2018-Jul-26 01:25N 45°05' E 013°38'0 0.0
2018-Jul-26 00:58N 45°05' E 013°38'0 0.0
2018-Jul-26 00:28N 45°05' E 013°38'0 0.0
2018-Jul-25 23:58N 45°05' E 013°38'0 0.0
2018-Jul-25 23:19N 45°05' E 013°38'0 0.0
2018-Jul-25 22:58N 45°05' E 013°38'0 0.0
2018-Jul-25 22:22N 45°05' E 013°38'0 0.0
2018-Jul-25 21:58N 45°05' E 013°38'0 0.0
2018-Jul-25 21:25N 45°05' E 013°38'0 0.0
2018-Jul-25 20:52N 45°05' E 013°38'0 0.0
2018-Jul-25 20:25N 45°05' E 013°38'0 0.0
2018-Jul-25 19:55N 45°05' E 013°38'0 0.0
2018-Jul-25 18:37N 45°05' E 013°38'0 0.0
2018-Jul-25 18:28N 45°05' E 013°38'0 0.0
2018-Jul-25 17:55N 45°05' E 013°38'0 0.0
2018-Jul-25 17:28N 45°05' E 013°38'0 0.0
2018-Jul-25 16:25N 45°05' E 013°38'0 0.0
2018-Jul-25 15:43N 45°05' E 013°38'0 0.0
2018-Jul-25 15:13N 45°05' E 013°38'0 0.0
2018-Jul-25 15:00N 45°05' E 013°38'3 6.2
2018-Jul-25 14:31N 45°07' E 013°35'2 1.5
2018-Jul-25 12:59N 45°09' E 013°36'0 0.0
2018-Jul-25 12:18N 45°09' E 013°36'0 0.0
2018-Jul-25 11:54N 45°09' E 013°36'0 0.0
2018-Jul-25 11:16N 45°09' E 013°36'0 0.0
2018-Jul-25 10:58N 45°09' E 013°36'0 0.0
2018-Jul-25 10:23N 45°09' E 013°36'0 0.1
2018-Jul-25 10:00N 45°09' E 013°36'3 6.1
2018-Jul-25 09:30N 45°12' E 013°34'2 0.1
2018-Jul-24 09:34N 45°14' E 013°35'0 3.4
2018-Jul-24 09:30N 45°14' E 013°35'510.2
2018-Jul-24 09:00N 45°18' E 013°32'714.4
2018-Jul-24 08:30N 45°25' E 013°29'510.5
2018-Jul-24 08:00N 45°30' E 013°29'3 4.4
2018-Jul-24 07:23N 45°31' E 013°33'0 0.1
2018-Jul-24 06:54N 45°31' E 013°33'0 0.0
2018-Jul-24 06:30N 45°31' E 013°33'0 0.0
2018-Jul-24 06:00N 45°31' E 013°33'0 0.0
2018-Jul-24 05:30N 45°31' E 013°33'0 0.0
2018-Jul-24 05:00N 45°31' E 013°33'0 0.0
2018-Jul-24 04:30N 45°31' E 013°33'0 0.0
2018-Jul-24 03:59N 45°31' E 013°33'0 0.0
2018-Jul-24 03:30N 45°31' E 013°33'0 0.0
2018-Jul-24 03:00N 45°31' E 013°33'0 0.0
2018-Jul-24 02:28N 45°31' E 013°33'0 0.0
2018-Jul-24 02:00N 45°31' E 013°33'0 0.0
2018-Jul-24 01:30N 45°31' E 013°33'0 0.0
2018-Jul-24 01:00N 45°31' E 013°33'0 0.0
2018-Jul-24 00:25N 45°31' E 013°33'0 0.0
2018-Jul-24 00:00N 45°31' E 013°33'0 0.1
2018-Jul-23 23:28N 45°31' E 013°33'0 0.0
2018-Jul-23 23:00N 45°31' E 013°33'0 0.0
2018-Jul-23 22:30N 45°31' E 013°33'0 0.0
2018-Jul-23 21:59N 45°31' E 013°33'0 0.0
2018-Jul-23 21:30N 45°31' E 013°33'0 0.0
2018-Jul-23 21:00N 45°31' E 013°33'0 0.0
2018-Jul-23 20:00N 45°31' E 013°33'0 0.0
2018-Jul-23 19:30N 45°31' E 013°33'0 0.0
2018-Jul-23 18:59N 45°31' E 013°33'0 0.0
2018-Jul-23 18:29N 45°31' E 013°33'0 0.0
2018-Jul-23 18:00N 45°31' E 013°33'0 0.0
2018-Jul-23 17:28N 45°31' E 013°33'0 0.0
2018-Jul-23 16:59N 45°31' E 013°33'0 0.0
2018-Jul-23 16:29N 45°31' E 013°33'0 0.0
2018-Jul-23 16:00N 45°31' E 013°33'0 0.0
2018-Jul-23 15:30N 45°31' E 013°33'0 0.1
2018-Jul-23 15:00N 45°31' E 013°33'0 0.6
2018-Jul-23 14:28N 45°31' E 013°34'510.6
2018-Jul-23 14:00N 45°36' E 013°36'510.6
2018-Jul-23 13:30N 45°39' E 013°42'3 5.2
2018-Jul-23 12:59N 45°39' E 013°46'0 0.0
2018-Jul-23 08:58N 45°39' E 013°46'0 0.0
2018-Jul-23 08:28N 45°39' E 013°46'0 0.0
2018-Jul-23 07:17N 45°39' E 013°46'0 0.0
2018-Jul-23 06:59N 45°39' E 013°46'0 0.0
2018-Jul-23 04:37N 45°39' E 013°46'0 0.0
2018-Jul-23 04:02N 45°39' E 013°46'0 0.0
2018-Jul-23 03:38N 45°39' E 013°46'0 0.0
2018-Jul-23 03:21N 45°39' E 013°46'0 0.0
2018-Jul-23 03:00N 45°39' E 013°46'0 0.0
2018-Jul-23 01:39N 45°39' E 013°46'0 0.0
2018-Jul-23 01:19N 45°39' E 013°46'0 0.0
2018-Jul-23 00:53N 45°39' E 013°46'0 0.0
2018-Jul-23 00:30N 45°39' E 013°46'0 0.0
2018-Jul-23 00:00N 45°39' E 013°46'0 0.0
2018-Jul-22 23:30N 45°39' E 013°46'0 0.0
2018-Jul-22 23:00N 45°39' E 013°46'0 0.0
2018-Jul-22 22:29N 45°39' E 013°46'0 0.0
2018-Jul-22 22:00N 45°39' E 013°46'0 0.0
2018-Jul-22 21:27N 45°39' E 013°46'0 0.0
2018-Jul-22 20:57N 45°39' E 013°46'0 0.0
2018-Jul-22 20:30N 45°39' E 013°46'0 0.0
2018-Jul-22 19:56N 45°39' E 013°46'0 0.0
2018-Jul-22 19:24N 45°39' E 013°46'0 0.0
2018-Jul-22 19:00N 45°39' E 013°46'0 0.0
2018-Jul-22 18:28N 45°39' E 013°46'0 0.0
2018-Jul-22 17:59N 45°39' E 013°46'0 0.0
2018-Jul-22 17:29N 45°39' E 013°46'0 0.0
2018-Jul-22 17:00N 45°39' E 013°46'0 0.0
2018-Jul-22 16:29N 45°39' E 013°46'0 0.0
2018-Jul-22 16:00N 45°39' E 013°46'0 0.0
2018-Jul-22 15:00N 45°39' E 013°46'0 0.0
2018-Jul-22 14:30N 45°39' E 013°46'0 0.0
2018-Jul-22 13:58N 45°39' E 013°46'0 0.0
2018-Jul-22 13:30N 45°39' E 013°46'0 0.0
2018-Jul-22 13:00N 45°39' E 013°46'2 3.4
2018-Jul-22 12:30N 45°39' E 013°43'510.1
2018-Jul-22 12:00N 45°37' E 013°36'714.3
2018-Jul-22 11:30N 45°33' E 013°28'714.3
2018-Jul-22 11:01N 45°31' E 013°19'714.4
2018-Jul-22 10:30N 45°29' E 013°09'714.2
2018-Jul-22 10:00N 45°27' E 012°59'714.2
2018-Jul-22 09:31N 45°25' E 012°49'714.1
2018-Jul-22 09:00N 45°23' E 012°39'813.3
2018-Jul-22 08:23N 45°24' E 012°28'4 6.5
2018-Jul-22 07:43N 45°25' E 012°22'  
2018-Jul-18 09:49N 45°25' E 012°22'  
Track history (hours):
 
Tides and Currents Weather Stations Pressure Air Temp Water Temp Dewpoint Dewpoint Depression Visibility Wind Speed Wind Dir Waves Ship Positions

Silver Shalis

Last reported at 2018-Jul-28 09:46 UTC. Time now 2018-Aug-19 15:18 UTC.
Position N 44°53' E 014°06'.
Warning: this ship's position is 22 days out of date.

Length 55 m; draft 2.2 m.

MMSI: 538070721.

Date/timePositionNaut miles runAvg speedWind from/ knotsBaromVisibWave heightAir tempDewpointWater temp
2018-Jul-28 09:46N 44°53' E 014°06'614.6
2018-Jul-28 09:22N 44°48' E 014°02'13 0.3
2018-Jul-26 14:19N 44°56' E 013°46'5 1.3
2018-Jul-26 10:33N 44°59' E 013°42'111.4
2018-Jul-26 10:30N 44°60' E 013°41'510.0
2018-Jul-26 09:59N 45°04' E 013°37'1 2.6
2018-Jul-26 09:30N 45°05' E 013°38'0 0.0
2018-Jul-26 08:46N 45°05' E 013°38'0 0.0
2018-Jul-26 08:16N 45°05' E 013°38'0 0.0
2018-Jul-26 07:01N 45°05' E 013°38'0 0.0
2018-Jul-26 06:58N 45°05' E 013°38'0 0.0
2018-Jul-26 06:16N 45°05' E 013°38'0 0.0
2018-Jul-26 05:55N 45°05' E 013°38'0 0.0
2018-Jul-26 05:22N 45°05' E 013°38'0 0.0
2018-Jul-26 04:55N 45°05' E 013°38'0 0.0
2018-Jul-26 04:22N 45°05' E 013°38'0 0.0
2018-Jul-26 03:52N 45°05' E 013°38'0 0.0
2018-Jul-26 03:28N 45°05' E 013°38'0 0.0
2018-Jul-26 02:34N 45°05' E 013°38'0 0.0
2018-Jul-26 02:22N 45°05' E 013°38'0 0.0
2018-Jul-26 01:52N 45°05' E 013°38'0 0.0
2018-Jul-26 01:25N 45°05' E 013°38'0 0.0
2018-Jul-26 00:58N 45°05' E 013°38'0 0.0
2018-Jul-26 00:28N 45°05' E 013°38'0 0.0
2018-Jul-25 23:58N 45°05' E 013°38'0 0.0
2018-Jul-25 23:19N 45°05' E 013°38'0 0.0
2018-Jul-25 22:58N 45°05' E 013°38'0 0.0
2018-Jul-25 22:22N 45°05' E 013°38'0 0.0
2018-Jul-25 21:58N 45°05' E 013°38'0 0.0
2018-Jul-25 21:25N 45°05' E 013°38'0 0.0
2018-Jul-25 20:52N 45°05' E 013°38'0 0.0
2018-Jul-25 20:25N 45°05' E 013°38'0 0.0
2018-Jul-25 19:55N 45°05' E 013°38'0 0.0
2018-Jul-25 18:37N 45°05' E 013°38'0 0.0
2018-Jul-25 18:28N 45°05' E 013°38'0 0.0
2018-Jul-25 17:55N 45°05' E 013°38'0 0.0
2018-Jul-25 17:28N 45°05' E 013°38'0 0.0
2018-Jul-25 16:25N 45°05' E 013°38'0 0.0
2018-Jul-25 15:43N 45°05' E 013°38'0 0.0
2018-Jul-25 15:13N 45°05' E 013°38'0 0.0
2018-Jul-25 15:00N 45°05' E 013°38'3 6.2
2018-Jul-25 14:31N 45°07' E 013°35'2 1.5
2018-Jul-25 12:59N 45°09' E 013°36'0 0.0
2018-Jul-25 12:18N 45°09' E 013°36'0 0.0
2018-Jul-25 11:54N 45°09' E 013°36'0 0.0
2018-Jul-25 11:16N 45°09' E 013°36'0 0.0
2018-Jul-25 10:58N 45°09' E 013°36'0 0.0
2018-Jul-25 10:23N 45°09' E 013°36'0 0.1
2018-Jul-25 10:00N 45°09' E 013°36'3 6.1
2018-Jul-25 09:30N 45°12' E 013°34'2 0.1
2018-Jul-24 09:34N 45°14' E 013°35'0 3.4
2018-Jul-24 09:30N 45°14' E 013°35'510.2
2018-Jul-24 09:00N 45°18' E 013°32'714.4
2018-Jul-24 08:30N 45°25' E 013°29'510.5
2018-Jul-24 08:00N 45°30' E 013°29'3 4.4
2018-Jul-24 07:23N 45°31' E 013°33'0 0.1
2018-Jul-24 06:54N 45°31' E 013°33'0 0.0
2018-Jul-24 06:30N 45°31' E 013°33'0 0.0
2018-Jul-24 06:00N 45°31' E 013°33'0 0.0
2018-Jul-24 05:30N 45°31' E 013°33'0 0.0
2018-Jul-24 05:00N 45°31' E 013°33'0 0.0
2018-Jul-24 04:30N 45°31' E 013°33'0 0.0
2018-Jul-24 03:59N 45°31' E 013°33'0 0.0
2018-Jul-24 03:30N 45°31' E 013°33'0 0.0
2018-Jul-24 03:00N 45°31' E 013°33'0 0.0
2018-Jul-24 02:28N 45°31' E 013°33'0 0.0
2018-Jul-24 02:00N 45°31' E 013°33'0 0.0
2018-Jul-24 01:30N 45°31' E 013°33'0 0.0
2018-Jul-24 01:00N 45°31' E 013°33'0 0.0
2018-Jul-24 00:25N 45°31' E 013°33'0 0.0
2018-Jul-24 00:00N 45°31' E 013°33'0 0.1
2018-Jul-23 23:28N 45°31' E 013°33'0 0.0
2018-Jul-23 23:00N 45°31' E 013°33'0 0.0
2018-Jul-23 22:30N 45°31' E 013°33'0 0.0
2018-Jul-23 21:59N 45°31' E 013°33'0 0.0
2018-Jul-23 21:30N 45°31' E 013°33'0 0.0
2018-Jul-23 21:00N 45°31' E 013°33'0 0.0
2018-Jul-23 20:00N 45°31' E 013°33'0 0.0
2018-Jul-23 19:30N 45°31' E 013°33'0 0.0
2018-Jul-23 18:59N 45°31' E 013°33'0 0.0
2018-Jul-23 18:29N 45°31' E 013°33'0 0.0
2018-Jul-23 18:00N 45°31' E 013°33'0 0.0
2018-Jul-23 17:28N 45°31' E 013°33'0 0.0
2018-Jul-23 16:59N 45°31' E 013°33'0 0.0
2018-Jul-23 16:29N 45°31' E 013°33'0 0.0
2018-Jul-23 16:00N 45°31' E 013°33'0 0.0
2018-Jul-23 15:30N 45°31' E 013°33'0 0.1
2018-Jul-23 15:00N 45°31' E 013°33'0 0.6
2018-Jul-23 14:28N 45°31' E 013°34'510.6
2018-Jul-23 14:00N 45°36' E 013°36'510.6
2018-Jul-23 13:30N 45°39' E 013°42'3 5.2
2018-Jul-23 12:59N 45°39' E 013°46'0 0.0
2018-Jul-23 08:58N 45°39' E 013°46'0 0.0
2018-Jul-23 08:28N 45°39' E 013°46'0 0.0
2018-Jul-23 07:17N 45°39' E 013°46'0 0.0
2018-Jul-23 06:59N 45°39' E 013°46'0 0.0
2018-Jul-23 04:37N 45°39' E 013°46'0 0.0
2018-Jul-23 04:02N 45°39' E 013°46'0 0.0
2018-Jul-23 03:38N 45°39' E 013°46'0 0.0
2018-Jul-23 03:21N 45°39' E 013°46'0 0.0
2018-Jul-23 03:00N 45°39' E 013°46'0 0.0
2018-Jul-23 01:39N 45°39' E 013°46'0 0.0
2018-Jul-23 01:19N 45°39' E 013°46'0 0.0
2018-Jul-23 00:53N 45°39' E 013°46'0 0.0
2018-Jul-23 00:30N 45°39' E 013°46'0 0.0
2018-Jul-23 00:00N 45°39' E 013°46'0 0.0
2018-Jul-22 23:30N 45°39' E 013°46'0 0.0
2018-Jul-22 23:00N 45°39' E 013°46'0 0.0
2018-Jul-22 22:29N 45°39' E 013°46'0 0.0
2018-Jul-22 22:00N 45°39' E 013°46'0 0.0
2018-Jul-22 21:27N 45°39' E 013°46'0 0.0
2018-Jul-22 20:57N 45°39' E 013°46'0 0.0
2018-Jul-22 20:30N 45°39' E 013°46'0 0.0
2018-Jul-22 19:56N 45°39' E 013°46'0 0.0
2018-Jul-22 19:24N 45°39' E 013°46'0 0.0
2018-Jul-22 19:00N 45°39' E 013°46'0 0.0
2018-Jul-22 18:28N 45°39' E 013°46'0 0.0
2018-Jul-22 17:59N 45°39' E 013°46'0 0.0
2018-Jul-22 17:29N 45°39' E 013°46'0 0.0
2018-Jul-22 17:00N 45°39' E 013°46'0 0.0
2018-Jul-22 16:29N 45°39' E 013°46'0 0.0
2018-Jul-22 16:00N 45°39' E 013°46'0 0.0
2018-Jul-22 15:00N 45°39' E 013°46'0 0.0
2018-Jul-22 14:30N 45°39' E 013°46'0 0.0
2018-Jul-22 13:58N 45°39' E 013°46'0 0.0
2018-Jul-22 13:30N 45°39' E 013°46'0 0.0
2018-Jul-22 13:00N 45°39' E 013°46'2 3.4
2018-Jul-22 12:30N 45°39' E 013°43'510.1
2018-Jul-22 12:00N 45°37' E 013°36'714.3
2018-Jul-22 11:30N 45°33' E 013°28'714.3
2018-Jul-22 11:01N 45°31' E 013°19'714.4
2018-Jul-22 10:30N 45°29' E 013°09'714.2
2018-Jul-22 10:00N 45°27' E 012°59'714.2
2018-Jul-22 09:31N 45°25' E 012°49'714.1
2018-Jul-22 09:00N 45°23' E 012°39'813.3
2018-Jul-22 08:23N 45°24' E 012°28'4 6.5
2018-Jul-22 07:43N 45°25' E 012°22'  
2018-Jul-18 09:49N 45°25' E 012°22'  

Dump ship's entire track history